Time;durP1;ratioP1;P1;durP2;ratioP2;P2;SDS_P1;SDS_P2;PMS_P1;PMS_P2;Temp;Humidity;BMP_temperature;BMP_pressure;BME280_temperature;BME280_humidity;BME280_pressure;Samples;Min_cycle;Max_cycle;Signal;HPM_P1;HPM_P2
2022/08/05 00:00:16;;;;;;;2.92;2.00;;;18.20;1.40;;;20.06;100.00;95177.10;647509;216;31540;-71
2022/08/05 00:02:59;;;;;;;2.50;1.70;;;18.10;1.40;;;19.86;100.00;95174.74;645609;212;31536;-70
2022/08/05 00:05:42;;;;;;;1.40;1.25;;;18.00;1.40;;;19.80;100.00;95171.86;647151;212;31734;-71
2022/08/05 00:08:24;;;;;;;1.65;1.50;;;18.00;1.40;;;19.74;100.00;95170.09;647703;216;31562;-70
2022/08/05 00:11:10;;;;;;;2.08;1.73;;;18.00;1.40;;;19.63;100.00;95167.77;647536;216;31545;-71
2022/08/05 00:13:54;;;;;;;1.70;1.60;;;18.00;1.40;;;19.69;100.00;95163.18;646120;216;32432;-70
2022/08/05 00:16:36;;;;;;;1.62;1.52;;;18.00;1.40;;;19.71;100.00;95161.84;634143;216;32405;-70
2022/08/05 00:19:18;;;;;;;1.33;1.23;;;18.00;1.40;;;19.69;100.00;95161.36;647229;216;33609;-70
2022/08/05 00:22:00;;;;;;;1.80;1.70;;;18.00;1.40;;;19.65;100.00;95155.16;618130;226;42570;-71
2022/08/05 00:24:41;;;;;;;5.90;1.92;;;18.00;1.40;;;19.66;100.00;95155.16;646399;212;42161;-71
2022/08/05 00:27:23;;;;;;;2.37;2.10;;;17.90;1.40;;;19.70;100.00;95151.48;646212;216;31579;-70
2022/08/05 00:30:07;;;;;;;1.80;1.70;;;18.00;1.40;;;19.81;100.00;95152.05;646739;212;42185;-70
2022/08/05 00:32:49;;;;;;;2.80;1.50;;;18.20;1.40;;;19.67;100.00;95153.70;646044;216;31550;-70
2022/08/05 00:35:51;;;;;;;1.30;1.20;;;18.10;1.40;;;19.55;100.00;95152.27;619263;222;32050;-70
2022/08/05 00:38:37;;;;;;;1.60;1.50;;;18.00;1.40;;;19.52;100.00;95151.91;647663;212;32320;-70
2022/08/05 00:41:32;;;;;;;2.08;1.45;;;18.00;1.40;;;19.69;100.00;95149.27;646885;212;31537;-71
2022/08/05 00:44:14;;;;;;;1.90;1.30;;;18.30;1.40;;;19.86;100.00;95151.88;646527;215;42972;-71
2022/08/05 00:46:56;;;;;;;2.40;1.60;;;18.60;1.40;;;19.95;100.00;95143.39;642068;214;32364;-72
2022/08/05 00:49:38;;;;;;;2.17;1.95;;;18.60;1.40;;;20.13;100.00;95151.91;646497;212;31676;-72
2022/08/05 00:52:22;;;;;;;1.80;1.70;;;18.90;1.40;;;20.22;100.00;95140.67;646267;216;31689;-72
2022/08/05 00:55:05;;;;;;;2.72;1.60;;;18.90;1.40;;;20.34;100.00;95138.46;620280;222;42940;-71
2022/08/05 00:57:47;;;;;;;2.17;1.80;;;19.20;1.40;;;20.36;100.00;95141.38;647029;216;32031;-69
2022/08/05 01:00:32;;;;;;;2.30;1.85;;;19.10;1.40;;;20.36;100.00;95138.73;648058;216;31548;-70
2022/08/05 01:03:14;;;;;;;2.00;1.60;;;18.90;1.40;;;20.38;100.00;95137.64;645124;213;42178;-71
2022/08/05 01:06:01;;;;;;;2.08;1.87;;;18.80;1.40;;;20.30;100.00;95134.88;601125;233;32229;-70
2022/08/05 01:08:42;;;;;;;2.10;1.80;;;18.60;1.40;;;20.21;100.00;95136.19;646645;216;31568;-70
2022/08/05 01:11:25;;;;;;;2.60;1.70;;;18.50;1.40;;;20.17;100.00;95129.66;647515;216;31514;-70
2022/08/05 01:14:32;;;;;;;1.75;1.65;;;18.50;1.40;;;20.15;100.00;95133.81;646321;216;43004;-70
2022/08/05 01:17:19;;;;;;;2.15;1.80;;;18.50;1.40;;;20.19;100.00;95134.80;619651;226;31870;-70
2022/08/05 01:20:12;;;;;;;1.50;1.40;;;18.50;1.40;;;20.10;100.00;95144.52;646833;216;34741;-69
2022/08/05 01:22:58;;;;;;;4.72;1.85;;;18.50;1.40;;;20.11;100.00;95143.19;646541;216;31680;-70
2022/08/05 01:26:08;;;;;;;2.65;2.05;;;18.40;1.40;;;20.11;100.00;95144.30;646717;216;31641;-70
2022/08/05 01:28:58;;;;;;;1.67;1.58;;;18.40;1.40;;;20.08;100.00;95139.78;646441;216;42984;-70
2022/08/05 01:31:41;;;;;;;1.80;1.58;;;18.30;1.40;;;20.03;100.00;95139.73;646643;216;42858;-70
2022/08/05 01:35:51;;;;;;;2.20;1.87;;;18.30;1.40;;;19.98;100.00;95137.55;646310;212;32498;-70
2022/08/05 01:38:32;;;;;;;1.70;1.30;;;18.30;1.40;;;19.97;100.00;95138.47;647080;212;31748;-71
2022/08/05 01:41:14;;;;;;;2.15;1.90;;;18.30;1.40;;;19.96;100.00;95136.37;646804;212;43376;-70
2022/08/05 01:43:56;;;;;;;1.50;1.30;;;18.30;1.40;;;19.99;100.00;95140.84;647402;216;42223;-71
2022/08/05 01:46:37;;;;;;;1.50;1.40;;;18.30;1.40;;;20.00;100.00;95140.71;647748;216;32100;-70
2022/08/05 01:49:19;;;;;;;2.47;1.50;;;18.50;1.40;;;19.94;100.00;95141.25;645875;212;31762;-70
2022/08/05 01:52:05;;;;;;;2.15;1.98;;;18.30;1.40;;;19.87;100.00;95138.86;647395;216;42261;-70
2022/08/05 01:54:49;;;;;;;2.40;1.20;;;18.20;1.40;;;19.88;100.00;95138.48;617562;225;31916;-70
2022/08/05 01:57:31;;;;;;;2.10;1.75;;;18.10;1.40;;;19.67;100.00;95145.91;646602;216;31585;-70
2022/08/05 02:00:13;;;;;;;2.00;1.80;;;17.90;1.40;;;19.57;100.00;95137.81;648018;216;42142;-70
2022/08/05 02:02:56;;;;;;;1.95;1.75;;;17.90;1.40;;;19.55;100.00;95136.10;647140;216;42238;-70
2022/08/05 02:05:37;;;;;;;1.73;1.62;;;17.80;1.40;;;19.51;100.00;95136.41;645520;216;32180;-70
2022/08/05 02:08:19;;;;;;;1.85;1.73;;;17.80;1.40;;;19.52;100.00;95141.06;647632;212;32129;-70
2022/08/05 02:11:07;;;;;;;2.12;1.62;;;17.80;1.40;;;19.57;100.00;95136.70;646591;216;31628;-70
2022/08/05 02:13:55;;;;;;;1.92;1.83;;;17.80;1.40;;;19.54;100.00;95135.16;645611;212;31521;-70
2022/08/05 02:16:39;;;;;;;2.30;1.37;;;17.70;1.40;;;19.37;100.00;95131.36;634022;216;31810;-70
2022/08/05 02:19:31;;;;;;;2.25;2.05;;;17.70;1.40;;;19.40;100.00;95133.11;646856;212;32067;-71
2022/08/05 02:22:17;;;;;;;4.50;1.67;;;17.70;1.40;;;19.41;100.00;95140.89;620722;226;42686;-70
2022/08/05 02:25:08;;;;;;;2.60;1.90;;;17.70;1.40;;;19.48;100.00;95136.05;645865;212;42441;-70
2022/08/05 02:27:50;;;;;;;1.48;1.37;;;18.10;1.40;;;19.79;100.00;95132.70;646272;215;32066;-70
2022/08/05 02:30:35;;;;;;;2.00;1.40;;;18.80;1.40;;;20.00;100.00;95136.78;646747;216;31526;-70
2022/08/05 02:35:51;;;;;;;2.20;1.50;;;18.60;1.40;;;19.85;100.00;95134.51;646424;212;31675;-70
2022/08/05 02:38:36;;;;;;;2.78;1.90;;;18.30;1.40;;;19.73;100.00;95131.52;647659;216;32110;-69
2022/08/05 02:41:17;;;;;;;2.90;1.67;;;18.10;1.40;;;19.63;100.00;95136.00;646584;216;31583;-70
2022/08/05 02:43:59;;;;;;;2.10;1.58;;;18.00;1.40;;;19.70;100.00;95133.75;646844;216;42141;-70
2022/08/05 02:46:41;;;;;;;1.70;1.47;;;18.30;1.40;;;19.81;100.00;95135.49;642184;217;31651;-70
2022/08/05 02:49:22;;;;;;;2.20;2.00;;;18.50;1.40;;;19.95;100.00;95134.44;646820;212;31599;-70
2022/08/05 02:52:05;;;;;;;1.83;1.50;;;18.80;1.40;;;20.00;100.00;95131.50;645557;212;33527;-70
2022/08/05 02:54:47;;;;;;;1.50;1.40;;;18.80;1.40;;;20.13;100.00;95122.40;645800;216;31528;-70
2022/08/05 02:57:29;;;;;;;1.60;1.40;;;18.90;1.40;;;20.26;100.00;95125.18;647066;216;42136;-70
2022/08/05 03:00:12;;;;;;;3.55;1.73;;;19.10;1.40;;;20.27;100.00;95122.19;646639;216;43415;-70
2022/08/05 03:02:54;;;;;;;2.00;1.80;;;19.00;1.40;;;20.33;100.00;95129.80;647182;216;32023;-71
2022/08/05 03:05:35;;;;;;;1.65;1.55;;;19.00;1.40;;;20.42;100.00;95129.40;646231;216;42191;-70
2022/08/05 03:08:17;;;;;;;1.77;1.67;;;19.30;1.40;;;20.43;100.00;95130.05;644876;216;31810;-71
2022/08/05 03:10:59;;;;;;;2.05;1.60;;;19.30;1.40;;;20.28;100.00;95130.36;646690;212;42568;-72
2022/08/05 03:13:41;;;;;;;2.10;1.90;;;18.80;1.40;;;19.97;100.00;95135.86;645802;216;42154;-73
2022/08/05 03:16:23;;;;;;;2.10;1.80;;;18.40;1.40;;;20.15;100.00;95130.52;635568;216;42888;-71
2022/08/05 03:19:04;;;;;;;2.45;2.20;;;19.00;1.40;;;20.35;100.00;95130.56;646746;212;31546;-70
2022/08/05 03:21:48;;;;;;;2.15;1.55;;;19.40;1.40;;;20.58;100.00;95130.06;646098;216;42118;-71
2022/08/05 03:24:30;;;;;;;1.60;1.50;;;19.50;1.40;;;20.56;100.00;95128.80;619053;226;31990;-70
2022/08/05 03:27:12;;;;;;;4.30;1.85;;;19.50;1.40;;;20.70;100.00;95126.84;647203;212;42696;-70
2022/08/05 03:29:53;;;;;;;1.90;1.80;;;19.60;1.40;;;20.76;100.00;95122.42;646018;216;42163;-70
2022/08/05 03:32:35;;;;;;;1.70;1.60;;;19.60;1.40;;;20.67;100.00;95118.28;619301;226;32006;-71
2022/08/05 03:35:55;;;;;;;2.33;1.70;;;19.40;1.40;;;20.66;100.00;95113.29;646265;212;32552;-70
2022/08/05 03:38:42;;;;;;;3.20;1.60;;;19.50;1.40;;;20.76;100.00;95110.52;646151;216;42188;-75
2022/08/05 03:41:26;;;;;;;4.80;2.00;;;19.70;1.40;;;20.79;100.00;95109.16;645737;212;31638;-70
2022/08/05 03:44:08;;;;;;;2.40;1.83;;;19.70;1.40;;;20.85;100.00;95110.50;646456;216;31526;-71
2022/08/05 03:46:49;;;;;;;4.50;1.80;;;19.70;1.40;;;20.92;100.00;95118.94;619422;226;42573;-71
2022/08/05 03:49:35;;;;;;;2.30;2.00;;;19.80;1.40;;;20.96;100.00;95117.19;646899;212;31530;-71
2022/08/05 03:52:17;;;;;;;2.50;1.83;;;19.80;1.40;;;20.98;100.00;95121.90;646730;216;31533;-71
2022/08/05 03:55:05;;;;;;;2.60;2.30;;;19.80;1.40;;;20.91;100.00;95117.49;645956;216;31557;-71
2022/08/05 03:57:47;;;;;;;2.40;1.98;;;19.80;1.40;;;20.91;100.00;95118.48;647832;212;31552;-71
2022/08/05 04:00:30;;;;;;;4.68;2.10;;;19.80;1.40;;;20.92;100.00;95121.54;646201;216;31550;-71
2022/08/05 04:03:10;;;;;;;2.37;2.17;;;19.60;1.40;;;20.91;100.00;95125.64;648103;216;31510;-71
2022/08/05 04:05:52;;;;;;;2.42;1.80;;;19.70;1.40;;;20.91;100.00;95130.98;646607;216;31519;-71
2022/08/05 04:08:34;;;;;;;2.22;2.03;;;19.70;1.40;;;20.92;100.00;95147.67;631197;222;31796;-70
2022/08/05 04:11:19;;;;;;;2.17;1.90;;;19.50;1.40;;;20.58;100.00;95161.46;646291;216;31611;-71
2022/08/05 04:14:07;;;;;;;2.00;1.80;;;19.20;1.40;;;20.63;100.00;95163.14;600810;233;32773;-71
2022/08/05 04:19:25;;;;;;;1.73;1.62;;;19.70;1.40;;;20.95;100.00;95163.84;646490;212;31925;-70
2022/08/05 04:22:07;;;;;;;1.73;1.62;;;19.80;1.40;;;21.06;100.00;95166.33;646328;216;31527;-70
2022/08/05 04:24:51;;;;;;;1.80;1.60;;;19.90;1.40;;;21.27;100.00;95174.06;644554;212;31569;-71
2022/08/05 04:27:34;;;;;;;1.87;1.60;;;20.20;1.40;;;21.37;100.00;95173.64;646688;212;31528;-71
2022/08/05 04:30:18;;;;;;;2.15;1.95;;;20.30;1.40;;;21.43;100.00;95176.56;646620;216;31534;-72
2022/08/05 04:33:00;;;;;;;1.97;1.77;;;20.30;1.40;;;21.45;100.00;95174.38;647054;212;32412;-71
2022/08/05 04:35:56;;;;;;;2.87;2.30;;;20.30;1.40;;;21.38;100.00;95184.36;646777;216;31801;-71
2022/08/05 04:38:37;;;;;;;2.30;2.10;;;20.10;1.40;;;21.29;100.00;95181.58;646769;212;31618;-70
2022/08/05 04:41:19;;;;;;;3.33;1.90;;;20.10;1.40;;;21.35;100.00;95181.45;646236;216;42159;-70
2022/08/05 04:44:01;;;;;;;2.15;1.95;;;20.10;1.40;;;21.44;100.00;95176.78;646684;216;32029;-70
2022/08/05 04:46:43;;;;;;;2.42;1.62;;;20.20;1.40;;;21.51;100.00;95182.64;645804;212;31671;-70
2022/08/05 04:49:25;;;;;;;1.92;1.42;;;20.30;1.40;;;21.65;100.00;95177.03;647514;216;42277;-71
2022/08/05 04:52:06;;;;;;;1.83;1.73;;;20.50;1.40;;;21.77;100.00;95180.97;647595;216;31587;-71
2022/08/05 04:54:48;;;;;;;2.50;1.90;;;20.60;1.40;;;21.84;100.00;95180.23;644548;216;31724;-71
2022/08/05 05:00:06;;;;;;;1.60;1.50;;;20.70;1.40;;;22.03;100.00;95180.82;646770;216;31581;-70
2022/08/05 05:02:48;;;;;;;3.35;2.25;;;20.80;1.40;;;22.16;100.00;95182.34;645871;216;31648;-69
2022/08/05 05:05:30;;;;;;;4.20;1.60;;;20.90;1.40;;;22.27;100.00;95185.02;646477;212;31579;-71
2022/08/05 05:08:13;;;;;;;1.85;1.75;;;21.10;1.40;;;22.40;100.00;95188.19;647486;216;31537;-70
2022/08/05 05:10:54;;;;;;;3.45;1.92;;;21.20;1.40;;;22.54;100.00;95192.06;645919;212;31629;-69
2022/08/05 05:13:36;;;;;;;2.40;2.17;;;21.50;1.40;;;22.66;100.00;95193.98;646833;216;31568;-70
2022/08/05 05:16:21;;;;;;;2.47;2.08;;;21.50;1.40;;;22.79;100.00;95192.05;645744;216;31779;-70
2022/08/05 05:19:03;;;;;;;2.30;2.08;;;21.60;1.40;;;22.90;100.00;95190.75;646712;212;31722;-70
2022/08/05 05:21:45;;;;;;;3.15;1.80;;;21.70;1.40;;;23.05;100.00;95192.63;646927;216;31543;-69
2022/08/05 05:24:27;;;;;;;2.33;2.12;;;21.90;1.40;;;23.24;100.00;95195.98;645750;212;31647;-69
2022/08/05 05:27:09;;;;;;;3.60;1.90;;;22.10;1.40;;;23.46;100.00;95201.03;645483;216;32511;-69
2022/08/05 05:29:51;;;;;;;1.90;1.55;;;22.30;1.40;;;23.86;100.00;95199.33;647354;216;31630;-69
2022/08/05 05:32:33;;;;;;;4.90;2.10;;;22.70;1.40;;;24.13;100.00;95201.70;646575;216;31533;-68
2022/08/05 05:35:51;;;;;;;3.77;1.70;;;23.10;1.40;;;24.45;100.00;95197.48;618257;226;31924;-69
2022/08/05 05:38:37;;;;;;;2.55;2.35;;;23.30;1.40;;;24.59;100.00;95200.56;647076;216;32011;-69
2022/08/05 05:41:19;;;;;;;1.80;1.70;;;23.40;1.40;;;24.74;100.00;95201.34;646554;212;42196;-70
2022/08/05 05:47:08;;;;;;;1.60;1.50;;;23.70;1.40;;;24.87;100.00;95206.00;647419;212;31547;-70
2022/08/05 05:49:50;;;;;;;2.45;2.03;;;23.70;1.40;;;24.89;100.00;95208.50;646772;212;31538;-69
2022/08/05 05:52:33;;;;;;;3.70;2.00;;;23.70;1.40;;;24.83;100.00;95211.66;646803;216;32192;-69
2022/08/05 05:55:17;;;;;;;1.65;1.50;;;23.60;1.40;;;24.77;100.00;95216.89;646676;216;42138;-70
2022/08/05 05:58:00;;;;;;;1.80;1.70;;;23.60;1.40;;;24.66;100.00;95212.91;646910;216;31925;-70
2022/08/05 06:00:42;;;;;;;2.10;1.90;;;23.50;1.40;;;24.59;100.00;95215.94;644694;216;32996;-70
2022/08/05 06:03:24;;;;;;;1.85;1.70;;;23.40;1.40;;;24.54;100.00;95210.81;618393;222;32001;-70
2022/08/05 06:06:09;;;;;;;1.90;1.60;;;23.40;1.40;;;24.56;100.00;95212.52;645840;216;31508;-69
2022/08/05 06:08:51;;;;;;;2.10;2.00;;;23.40;1.40;;;24.78;100.00;95216.03;647307;212;31541;-69
2022/08/05 06:11:32;;;;;;;2.10;1.80;;;23.70;1.40;;;25.00;100.00;95217.73;646618;216;42206;-70
2022/08/05 06:14:14;;;;;;;2.00;1.80;;;23.90;1.40;;;25.20;100.00;95214.14;645979;212;31795;-70
2022/08/05 06:16:56;;;;;;;2.75;1.95;;;24.10;1.40;;;25.41;100.00;95206.71;646621;216;31848;-69
2022/08/05 06:19:38;;;;;;;2.00;1.80;;;24.30;1.40;;;25.54;100.00;95209.88;645811;216;31517;-68
2022/08/05 06:22:24;;;;;;;2.65;1.65;;;24.40;1.40;;;25.63;100.00;95209.45;645850;216;31619;-68
2022/08/05 06:25:07;;;;;;;1.80;1.70;;;24.60;1.40;;;25.88;100.00;95208.54;646322;212;31519;-71
2022/08/05 06:27:49;;;;;;;2.40;2.20;;;24.80;1.40;;;26.05;100.00;95207.78;646355;216;31558;-69
2022/08/05 06:30:31;;;;;;;2.70;1.60;;;25.00;1.40;;;26.26;98.91;95203.70;645398;212;32073;-68
2022/08/05 06:35:54;;;;;;;2.10;1.90;;;25.50;1.40;;;26.56;94.65;95200.78;647535;212;32319;-69
2022/08/05 06:38:36;;;;;;;2.20;1.90;;;25.50;1.40;;;26.85;95.74;95211.31;646668;216;42198;-68
2022/08/05 06:41:19;;;;;;;4.22;1.87;;;25.80;1.40;;;27.06;91.76;95214.75;646875;216;31570;-69
2022/08/05 06:44:04;;;;;;;1.90;1.70;;;25.90;1.40;;;27.07;91.62;95221.72;646879;216;32068;-69
2022/08/05 06:46:46;;;;;;;2.20;2.00;;;25.90;1.40;;;27.05;93.42;95221.27;644935;212;32346;-69
2022/08/05 06:49:33;;;;;;;1.50;1.40;;;25.80;1.40;;;26.93;91.69;95219.64;645498;215;31843;-69
2022/08/05 06:52:14;;;;;;;2.50;1.80;;;25.60;1.40;;;26.90;90.45;95214.77;647981;216;31572;-69
2022/08/05 06:55:00;;;;;;;1.70;1.60;;;25.70;1.40;;;27.02;91.95;95227.55;645711;216;31572;-69
2022/08/05 06:57:42;;;;;;;2.00;1.80;;;25.70;1.40;;;26.77;91.96;95228.27;649292;213;31713;-70
2022/08/05 07:00:23;;;;;;;2.17;1.80;;;25.50;1.40;;;26.67;93.86;95228.86;647521;216;32184;-69
2022/08/05 07:03:05;;;;;;;1.75;1.65;;;25.40;1.40;;;26.51;92.94;95233.59;646987;216;32128;-69
2022/08/05 07:05:48;;;;;;;2.40;1.83;;;25.30;1.40;;;26.49;94.42;95238.03;647422;212;31551;-69
2022/08/05 07:08:30;;;;;;;2.40;2.20;;;25.30;1.40;;;26.41;94.30;95246.59;646679;216;31525;-69
2022/08/05 07:11:12;;;;;;;2.37;2.28;;;25.20;1.40;;;26.41;95.51;95253.09;645752;216;32091;-69
2022/08/05 07:19:21;;;;;;;1.60;1.50;;;25.30;1.40;;;26.49;94.74;95269.34;648227;212;31720;-69
2022/08/05 07:22:03;;;;;;;3.40;1.60;;;25.30;1.40;;;26.54;93.62;95280.35;649547;212;31690;-69
2022/08/05 07:24:48;;;;;;;2.37;1.98;;;25.40;1.40;;;26.68;92.48;95288.58;649219;212;31657;-69
2022/08/05 07:27:31;;;;;;;2.12;1.90;;;25.60;1.40;;;26.96;93.30;95283.36;647018;216;31925;-69
2022/08/05 07:32:47;;;;;;;2.40;1.80;;;25.70;1.40;;;26.75;90.97;95291.25;645799;212;32313;-69
2022/08/05 07:35:51;;;;;;;4.10;2.00;;;25.50;1.40;;;26.78;91.26;95297.18;646610;216;31588;-69
2022/08/05 07:38:36;;;;;;;4.80;1.50;;;25.70;1.40;;;26.79;87.97;95300.19;649068;216;32153;-70
2022/08/05 07:41:17;;;;;;;2.20;2.00;;;25.60;1.40;;;26.82;88.04;95316.98;646168;216;31628;-69
2022/08/05 07:43:59;;;;;;;2.00;1.90;;;25.70;1.40;;;27.00;88.48;95320.98;647969;216;31847;-68
2022/08/05 07:46:41;;;;;;;2.20;2.10;;;25.80;1.40;;;27.08;86.98;95335.77;646554;212;31666;-69
2022/08/05 07:49:23;;;;;;;2.70;2.20;;;25.80;1.40;;;27.02;86.39;95338.41;646898;216;31582;-69
2022/08/05 07:52:05;;;;;;;4.68;2.70;;;25.50;1.40;;;26.57;87.24;95336.83;647748;216;31624;-70
2022/08/05 07:54:47;;;;;;;1.80;1.70;;;25.20;1.40;;;26.59;87.11;95339.33;646673;212;31666;-69
2022/08/05 07:57:29;;;;;;;3.85;2.08;;;25.40;1.40;;;26.71;86.87;95337.36;648647;216;31715;-69
2022/08/05 08:00:13;;;;;;;2.47;2.28;;;25.50;1.40;;;27.03;87.76;95342.72;646904;216;31708;-68
2022/08/05 08:02:54;;;;;;;2.55;2.10;;;25.80;1.40;;;27.23;85.97;95344.42;645498;212;31678;-71
2022/08/05 08:05:36;;;;;;;2.50;2.20;;;25.90;1.40;;;27.25;84.16;95356.38;648151;216;31529;-69
2022/08/05 08:08:18;;;;;;;3.10;2.00;;;25.90;1.40;;;27.19;85.03;95347.20;649028;216;31609;-70
2022/08/05 08:11:02;;;;;;;2.40;2.20;;;25.80;1.40;;;27.46;84.39;95350.94;648595;216;31794;-70
2022/08/05 08:13:45;;;;;;;3.95;2.50;;;26.10;1.40;;;27.41;84.98;95352.48;648298;216;31588;-68
2022/08/05 08:16:28;;;;;;;2.70;2.22;;;26.20;1.40;;;27.62;84.88;95366.99;648865;216;31563;-69
2022/08/05 08:19:11;;;;;;;3.35;2.22;;;26.40;1.40;;;27.51;83.47;95374.82;645420;212;31683;-68
2022/08/05 08:21:52;;;;;;;4.10;2.78;;;26.10;1.40;;;26.92;83.03;95377.91;646809;216;31518;-69
2022/08/05 08:24:34;;;;;;;2.92;2.62;;;25.50;1.40;;;26.90;84.46;95384.27;647962;212;31825;-69
2022/08/05 08:27:19;;;;;;;3.40;3.10;;;25.50;1.40;;;26.62;84.15;95384.63;647445;216;31684;-69
2022/08/05 08:30:02;;;;;;;2.80;2.45;;;25.30;1.40;;;26.76;85.70;95381.36;620525;222;33028;-69
2022/08/05 08:35:51;;;;;;;3.90;2.40;;;25.40;1.40;;;26.69;85.39;95387.53;647145;216;31765;-69
2022/08/05 08:38:36;;;;;;;2.25;2.05;;;25.50;1.40;;;26.63;84.80;95392.17;648468;216;31570;-69
2022/08/05 08:41:18;;;;;;;2.35;2.25;;;25.30;1.40;;;26.89;85.66;95387.53;647526;216;31592;-68
2022/08/05 08:44:00;;;;;;;2.92;2.53;;;25.70;1.40;;;27.25;87.00;95393.40;646020;212;32389;-69
2022/08/05 08:46:42;;;;;;;2.90;2.70;;;26.10;1.40;;;27.23;84.75;95396.01;619219;226;33044;-69
2022/08/05 08:49:24;;;;;;;4.47;3.00;;;26.00;1.40;;;27.36;84.50;95401.96;646144;216;31573;-69
2022/08/05 08:52:11;;;;;;;2.70;2.25;;;26.20;1.40;;;27.62;83.79;95401.83;648505;216;31632;-70
2022/08/05 08:54:53;;;;;;;3.40;2.40;;;26.40;1.40;;;27.61;83.29;95397.28;650757;212;32013;-70
2022/08/05 08:57:37;;;;;;;3.00;2.50;;;26.40;1.40;;;27.58;83.92;95406.82;645263;216;31645;-69
2022/08/05 09:00:19;;;;;;;2.42;2.10;;;26.40;1.40;;;27.77;83.64;95415.18;646542;212;31572;-69
2022/08/05 09:03:01;;;;;;;2.50;2.30;;;26.60;1.40;;;28.00;82.72;95414.32;618894;226;32195;-69
2022/08/05 09:05:43;;;;;;;3.95;2.83;;;26.80;1.40;;;28.08;81.39;95415.98;644981;212;32187;-69
2022/08/05 09:08:26;;;;;;;4.35;2.15;;;26.80;1.40;;;28.38;81.37;95413.78;619237;226;32237;-69
2022/08/05 09:11:08;;;;;;;3.60;2.65;;;27.10;1.40;;;28.81;80.55;95413.76;648323;216;31616;-69
2022/08/05 09:14:10;;;;;;;2.67;2.30;;;27.70;1.40;;;28.92;79.95;95422.84;645869;216;31581;-69
2022/08/05 09:16:54;;;;;;;3.10;2.20;;;27.90;1.40;;;29.49;77.94;95425.16;646470;212;31756;-69
2022/08/05 09:19:36;;;;;;;3.28;2.20;;;28.40;1.40;;;29.73;75.71;95429.58;619389;225;44663;-69
2022/08/05 09:22:18;;;;;;;4.40;2.58;;;28.60;1.40;;;30.02;75.73;95433.80;646160;212;31590;-69
2022/08/05 09:25:00;;;;;;;4.40;2.40;;;29.70;1.40;;;30.49;74.74;95437.48;619146;226;31845;-70
2022/08/05 09:27:42;;;;;;;3.37;2.12;;;30.30;1.40;;;30.60;72.45;95434.09;648172;216;32254;-69
2022/08/05 09:30:25;;;;;;;3.30;1.87;;;30.40;1.40;;;31.94;69.14;95422.61;646170;216;31593;-69
2022/08/05 09:36:08;;;;;;;6.20;2.50;;;32.70;1.40;;;33.06;63.58;95431.31;644341;216;31745;-69
2022/08/05 09:39:05;;;;;;;2.58;2.35;;;34.00;1.40;;;35.56;61.83;95425.69;648764;212;31701;-70
2022/08/05 09:41:56;;;;;;;3.12;2.20;;;35.70;1.40;;;35.16;56.33;95432.43;646676;212;31544;-70
2022/08/05 09:44:40;;;;;;;2.42;2.22;;;33.50;1.40;;;35.56;57.68;95433.77;646731;216;31537;-70
2022/08/05 09:47:21;;;;;;;3.20;2.50;;;34.30;1.40;;;35.20;54.64;95438.08;619254;222;33200;-70
2022/08/05 09:50:06;;;;;;;3.80;2.90;;;34.40;1.40;;;36.02;54.20;95428.92;647537;212;31924;-69
2022/08/05 09:52:48;;;;;;;2.97;2.67;;;35.00;1.40;;;35.87;53.42;95427.55;646137;212;31577;-70
2022/08/05 09:55:31;;;;;;;2.22;2.00;;;35.60;1.40;;;35.88;53.40;95429.59;652478;212;32077;-71
2022/08/05 09:58:16;;;;;;;6.05;2.58;;;35.30;1.40;;;36.63;52.83;95429.35;649288;216;32246;-70
2022/08/05 10:00:59;;;;;;;3.20;2.40;;;33.50;1.40;;;36.19;51.49;95436.22;650828;212;31883;-70
2022/08/05 10:03:41;;;;;;;3.92;2.17;;;34.50;1.40;;;35.98;50.96;95441.60;647128;216;31841;-71
2022/08/05 10:06:23;;;;;;;5.55;2.60;;;34.10;1.40;;;34.96;51.39;95448.33;649767;216;31603;-70
2022/08/05 10:09:12;;;;;;;2.50;2.17;;;34.00;1.40;;;34.70;52.08;95436.83;643934;216;31701;-69
2022/08/05 10:11:53;;;;;;;2.50;2.30;;;33.20;1.40;;;35.19;51.77;95438.54;644568;216;31613;-69
2022/08/05 10:14:36;;;;;;;2.25;2.15;;;34.50;1.40;;;34.51;52.92;95441.78;647410;216;31664;-70
2022/08/05 10:17:20;;;;;;;3.47;2.20;;;33.80;1.40;;;34.77;52.90;95451.59;642555;219;32546;-71
2022/08/05 10:20:02;;;;;;;5.30;2.50;;;34.00;1.40;;;33.34;55.30;95459.09;648383;216;31889;-70
2022/08/05 10:22:46;;;;;;;2.37;2.10;;;32.60;1.40;;;34.40;54.25;95452.45;647254;216;31687;-70
2022/08/05 10:25:30;;;;;;;2.72;2.00;;;33.90;1.40;;;35.71;52.18;95450.03;646664;212;31789;-69
2022/08/05 10:28:11;;;;;;;3.25;2.30;;;34.80;1.40;;;34.51;51.81;95446.52;645360;216;32773;-69
2022/08/05 10:30:54;;;;;;;3.47;2.10;;;33.70;1.40;;;35.18;52.10;95447.16;649629;216;32182;-70
2022/08/05 10:35:50;;;;;;;2.20;2.10;;;34.40;1.40;;;35.31;50.46;95444.40;649357;212;31744;-70
2022/08/05 10:38:32;;;;;;;4.87;2.30;;;34.80;1.40;;;37.35;48.94;95435.71;652113;216;31561;-70
2022/08/05 10:41:17;;;;;;;2.45;2.05;;;36.00;1.40;;;39.09;45.98;95433.28;645136;216;32458;-70
2022/08/05 10:44:01;;;;;;;3.75;2.60;;;37.60;1.40;;;39.84;45.00;95430.23;619350;222;32039;-69
2022/08/05 10:46:49;;;;;;;3.20;2.20;;;37.00;1.40;;;39.68;44.92;95426.97;621613;226;31912;-70
2022/08/05 10:49:30;;;;;;;2.50;2.30;;;37.50;1.40;;;42.03;41.09;95421.97;645956;216;31597;-71
2022/08/05 10:52:11;;;;;;;2.72;2.53;;;37.90;1.40;;;39.32;41.74;95425.97;646078;216;31605;-70
2022/08/05 10:55:02;;;;;;;2.37;2.27;;;35.80;1.40;;;40.33;41.46;95424.93;643148;216;31668;-70
2022/08/05 10:57:44;;;;;;;3.53;2.30;;;37.20;1.40;;;42.04;41.32;95411.27;618959;226;32162;-70
2022/08/05 11:00:28;;;;;;;1.93;1.83;;;38.60;1.40;;;42.15;40.66;95411.76;645398;216;31525;-70
2022/08/05 11:03:10;;;;;;;2.33;2.10;;;36.80;1.40;;;40.01;39.60;95421.44;650946;216;31575;-70
2022/08/05 11:06:05;;;;;;;4.10;1.90;;;33.60;1.40;;;37.99;40.63;95416.50;650532;216;31531;-71
2022/08/05 11:09:02;;;;;;;2.10;1.90;;;33.20;1.40;;;39.03;39.64;95419.48;645631;216;31935;-69
2022/08/05 11:11:46;;;;;;;2.40;1.87;;;34.40;1.40;;;38.24;41.55;95418.60;645180;212;42223;-71
2022/08/05 11:14:27;;;;;;;3.17;1.80;;;34.70;1.40;;;36.95;42.53;95421.20;649427;216;31567;-70
2022/08/05 11:17:29;;;;;;;1.85;1.75;;;33.20;1.40;;;37.51;41.71;95419.50;650767;212;31859;-70
2022/08/05 11:20:43;;;;;;;1.80;1.70;;;32.60;1.40;;;37.49;41.54;95417.33;646213;212;32623;-70
2022/08/05 11:26:24;;;;;;;3.17;1.90;;;32.70;1.40;;;37.36;42.68;95413.33;646724;216;31735;-70
2022/08/05 11:29:05;;;;;;;2.10;1.90;;;33.90;1.40;;;38.79;40.90;95416.00;615724;222;32125;-70
2022/08/05 11:31:47;;;;;;;1.80;1.70;;;35.10;1.40;;;39.29;39.96;95416.79;645151;216;31522;-69
2022/08/05 11:35:55;;;;;;;2.33;1.80;;;34.00;1.40;;;38.27;41.38;95416.98;643668;216;42185;-70
2022/08/05 11:38:54;;;;;;;2.30;1.90;;;34.50;1.40;;;40.00;42.56;95419.33;646743;212;31646;-70
2022/08/05 11:41:35;;;;;;;2.37;2.00;;;35.90;1.40;;;38.75;39.40;95414.48;645762;216;31715;-70
2022/08/05 11:44:19;;;;;;;2.62;2.20;;;32.90;1.40;;;38.75;39.70;95410.78;647160;215;33804;-70
2022/08/05 11:47:01;;;;;;;2.67;1.80;;;32.90;1.40;;;37.56;41.81;95409.44;648351;216;31596;-70
2022/08/05 11:49:42;;;;;;;2.08;1.80;;;32.60;1.40;;;37.11;43.02;95406.07;648630;216;31541;-70
2022/08/05 11:52:26;;;;;;;2.12;1.92;;;31.60;1.40;;;37.21;42.34;95405.47;619300;225;31939;-69
2022/08/05 11:55:08;;;;;;;2.40;2.20;;;32.00;1.40;;;35.04;46.75;95416.51;649967;216;31713;-69
2022/08/05 11:57:50;;;;;;;1.90;1.80;;;31.30;1.40;;;35.50;45.81;95408.30;617315;226;31984;-69
2022/08/05 12:00:35;;;;;;;2.40;1.73;;;32.20;1.40;;;36.06;44.79;95408.27;647102;216;42707;-70
2022/08/05 12:03:20;;;;;;;1.97;1.87;;;32.60;1.40;;;36.52;43.74;95401.67;648013;216;31659;-70
2022/08/05 12:06:02;;;;;;;3.25;2.53;;;32.30;1.40;;;37.11;43.60;95399.16;647505;212;31525;-69
2022/08/05 12:08:44;;;;;;;4.35;1.83;;;32.40;1.40;;;35.23;45.54;95405.22;622681;226;31995;-69